createdAt,value
2022-08-11T00:01:29.801Z,100116.56
2022-08-11T00:04:05.637Z,100121.09
2022-08-11T00:06:38.228Z,100128.75
2022-08-11T00:09:10.250Z,100101.16
2022-08-11T00:11:43.286Z,100121.78
2022-08-11T00:14:37.065Z,100127.41
2022-08-11T00:17:14.005Z,100128.41
2022-08-11T00:20:11.712Z,100123.91
2022-08-11T00:22:42.391Z,100112.50
2022-08-11T00:25:23.595Z,100104.53
2022-08-11T00:27:51.678Z,100118.78
2022-08-11T00:30:19.917Z,100107.63
2022-08-11T00:32:58.286Z,100120.31
2022-08-11T00:35:50.774Z,100121.16
2022-08-11T00:38:27.239Z,100106.63
2022-08-11T00:40:58.009Z,100127.72
2022-08-11T00:44:08.837Z,100121.84
2022-08-11T00:47:12.169Z,100126.88
2022-08-11T00:49:43.272Z,100124.97
2022-08-11T00:52:16.816Z,100128.00
2022-08-11T00:54:54.424Z,100123.84
2022-08-11T00:57:55.162Z,100121.84
2022-08-11T01:00:26.012Z,100119.66
2022-08-11T01:03:29.777Z,100127.09
2022-08-11T01:06:31.147Z,100118.53
2022-08-11T01:09:22.499Z,100123.31
2022-08-11T01:12:18.273Z,100123.19
2022-08-11T01:15:10.375Z,100126.34
2022-08-11T01:18:23.108Z,100127.81
2022-08-11T01:21:17.403Z,100132.94
2022-08-11T01:23:58.297Z,100129.88
2022-08-11T01:26:44.797Z,100132.78
2022-08-11T01:29:37.815Z,100140.16
2022-08-11T01:32:14.338Z,100140.75
2022-08-11T01:35:22.930Z,100147.50
2022-08-11T01:38:13.352Z,100135.22
2022-08-11T01:41:10.816Z,100142.13
2022-08-11T01:44:24.233Z,100134.88
2022-08-11T01:47:53.026Z,100148.66
2022-08-11T01:50:58.431Z,100147.28
2022-08-11T01:53:59.933Z,100147.56
2022-08-11T01:56:43.709Z,100138.81
2022-08-11T01:59:27.008Z,100135.44
2022-08-11T02:03:02.415Z,100140.81
2022-08-11T02:06:03.948Z,100130.94
2022-08-11T02:09:08.716Z,100129.50
2022-08-11T02:11:41.169Z,100136.16
2022-08-11T02:14:23.308Z,100131.00
2022-08-11T02:17:03.511Z,100137.00
2022-08-11T02:20:08.289Z,100130.69
2022-08-11T02:23:08.676Z,100126.41
2022-08-11T02:25:56.901Z,100133.16
2022-08-11T02:28:59.886Z,100125.28
2022-08-11T02:32:24.003Z,100125.00
2022-08-11T02:35:00.196Z,100129.00
2022-08-11T02:37:34.570Z,100122.16
2022-08-11T02:43:19.518Z,100123.88
2022-08-11T02:45:55.489Z,100129.47
2022-08-11T02:49:00.451Z,100127.41
2022-08-11T02:51:59.597Z,100122.81
2022-08-11T02:54:33.649Z,100134.44
2022-08-11T02:57:28.347Z,100140.06
2022-08-11T03:00:22.484Z,100136.66
2022-08-11T03:03:06.654Z,100128.78
2022-08-11T03:06:05.687Z,100148.97
2022-08-11T03:08:43.370Z,100150.63
2022-08-11T03:11:58.007Z,100147.88
2022-08-11T03:15:20.260Z,100147.50
2022-08-11T03:18:25.874Z,100141.72
2022-08-11T03:21:39.536Z,100146.75
2022-08-11T03:24:23.351Z,100136.84
2022-08-11T03:27:11.973Z,100143.97
2022-08-11T03:30:02.812Z,100136.06
2022-08-11T03:33:27.110Z,100140.06
2022-08-11T03:36:16.223Z,100138.75
2022-08-11T03:39:05.668Z,100138.63
2022-08-11T03:42:27.149Z,100141.63
2022-08-11T03:45:15.226Z,100130.66
2022-08-11T03:48:09.548Z,100139.25
2022-08-11T03:50:54.996Z,100140.97
2022-08-11T03:54:00.531Z,100143.56
2022-08-11T03:57:11.188Z,100136.25
2022-08-11T03:59:57.211Z,100138.72
2022-08-11T04:02:49.592Z,100139.91
2022-08-11T04:05:46.845Z,100138.19
2022-08-11T04:08:54.175Z,100144.50
2022-08-11T04:12:06.990Z,100135.84
2022-08-11T04:15:41.311Z,100135.38
2022-08-11T04:18:30.888Z,100137.91
2022-08-11T04:21:10.647Z,100139.47
2022-08-11T04:24:33.278Z,100144.94
2022-08-11T04:26:40.973Z,100147.56
2022-08-11T04:30:05.157Z,100156.16
2022-08-11T04:32:49.358Z,100145.22
2022-08-11T04:35:54.630Z,100147.84
2022-08-11T04:38:44.157Z,100151.22
2022-08-11T04:41:28.904Z,100142.00
2022-08-11T04:44:41.752Z,100140.34
2022-08-11T04:48:08.798Z,100152.47
2022-08-11T04:51:33.598Z,100147.41
2022-08-11T04:54:58.957Z,100148.69
2022-08-11T04:58:20.089Z,100146.75
2022-08-11T05:01:12.596Z,100149.59
2022-08-11T05:04:33.737Z,100145.41
2022-08-11T05:07:53.206Z,100138.16
2022-08-11T05:10:43.258Z,100136.88
2022-08-11T05:13:42.117Z,100133.91
2022-08-11T05:16:33.531Z,100136.69
2022-08-11T05:19:21.711Z,100141.66
2022-08-11T05:22:15.243Z,100135.03
2022-08-11T05:25:08.077Z,100141.56
2022-08-11T05:28:16.062Z,100146.25
2022-08-11T05:31:03.202Z,100133.81
2022-08-11T05:34:06.817Z,100137.44
2022-08-11T05:37:25.225Z,100141.78
2022-08-11T05:40:16.856Z,100132.50
2022-08-11T05:43:09.795Z,100136.00
2022-08-11T05:46:04.764Z,100134.19
2022-08-11T05:48:55.622Z,100135.19
2022-08-11T05:51:55.403Z,100128.34
2022-08-11T05:54:47.214Z,100130.34
2022-08-11T05:57:50.433Z,100124.16
2022-08-11T06:00:18.180Z,100120.31
2022-08-11T06:03:05.875Z,100121.22
2022-08-11T06:05:38.232Z,100120.81
2022-08-11T06:08:14.824Z,100125.75
2022-08-11T06:10:44.893Z,100118.97
2022-08-11T06:13:21.162Z,100113.84
2022-08-11T06:15:56.748Z,100116.19
2022-08-11T06:18:26.271Z,100124.69
2022-08-11T06:21:03.837Z,100118.34
2022-08-11T06:23:36.273Z,100128.88
2022-08-11T06:26:11.862Z,100117.19
2022-08-11T06:28:42.499Z,100117.63
2022-08-11T06:31:21.515Z,100126.78
2022-08-11T06:34:26.652Z,100115.75
2022-08-11T06:37:12.172Z,100126.69
2022-08-11T06:40:12.178Z,100119.94
2022-08-11T06:43:07.744Z,100109.41
2022-08-11T06:45:59.536Z,100122.94
2022-08-11T06:48:27.899Z,100118.38
2022-08-11T06:51:13.080Z,100118.88
2022-08-11T06:54:03.548Z,100115.53
2022-08-11T06:57:28.360Z,100101.28
2022-08-11T07:00:09.228Z,100103.84
2022-08-11T07:03:03.951Z,100112.72
2022-08-11T07:05:44.469Z,100104.94
2022-08-11T07:09:12.207Z,100106.28
2022-08-11T07:12:20.860Z,100106.09
2022-08-11T07:15:20.603Z,100090.09
2022-08-11T07:18:13.168Z,100109.25
2022-08-11T07:21:04.377Z,100099.13
2022-08-11T07:24:15.961Z,100100.44
2022-08-11T07:27:10.514Z,100074.50
2022-08-11T07:29:40.015Z,100093.63
2022-08-11T07:32:20.776Z,100093.88
2022-08-11T07:34:57.394Z,100091.16
2022-08-11T07:37:27.108Z,100092.28
2022-08-11T07:39:56.075Z,100065.69
2022-08-11T07:42:31.389Z,100089.22
2022-08-11T07:45:19.260Z,100087.16
2022-08-11T07:48:07.275Z,100087.50
2022-08-11T07:50:56.197Z,100087.50
2022-08-11T07:53:25.191Z,100087.25
2022-08-11T07:55:56.649Z,100096.66
2022-08-11T07:58:52.348Z,100093.75
2022-08-11T08:01:43.670Z,100084.41
2022-08-11T08:04:36.702Z,100091.59
2022-08-11T08:07:24.992Z,100081.47
2022-08-11T08:10:15.924Z,100081.34
2022-08-11T08:13:04.104Z,100091.94
2022-08-11T08:15:52.316Z,100083.78
2022-08-11T08:18:26.472Z,100085.34
2022-08-11T08:21:12.654Z,100088.31
2022-08-11T08:23:46.742Z,100080.88
2022-08-11T08:26:35.867Z,100087.91
2022-08-11T08:29:25.542Z,100082.09
2022-08-11T08:31:57.070Z,100075.81
2022-08-11T08:34:26.137Z,100087.16
2022-08-11T08:36:55.515Z,100092.47
2022-08-11T08:39:26.669Z,100070.94
2022-08-11T08:41:57.921Z,100076.53
2022-08-11T08:44:38.489Z,100068.22
2022-08-11T08:47:16.882Z,100070.19
2022-08-11T08:50:08.229Z,100069.69
2022-08-11T08:52:44.052Z,100065.28
2022-08-11T08:55:32.785Z,100069.28
2022-08-11T08:58:03.741Z,100066.16
2022-08-11T09:00:41.886Z,100074.41
2022-08-11T09:03:38.583Z,100065.84
2022-08-11T09:06:00.015Z,100072.72
2022-08-11T09:08:29.365Z,100079.09
2022-08-11T09:11:17.803Z,100081.22
2022-08-11T09:14:04.987Z,100074.13
2022-08-11T09:16:37.107Z,100079.69
2022-08-11T09:19:06.066Z,100084.09
2022-08-11T09:21:48.269Z,100064.97
2022-08-11T09:24:38.942Z,100071.94
2022-08-11T09:27:11.257Z,100084.91
2022-08-11T09:29:40.006Z,100083.34
2022-08-11T09:32:09.750Z,100075.78
2022-08-11T09:34:39.747Z,100074.84
2022-08-11T09:37:54.419Z,100072.16
2022-08-11T09:40:29.850Z,100069.34
2022-08-11T09:43:29.811Z,100072.56
2022-08-11T09:46:00.685Z,100069.25
2022-08-11T09:48:32.249Z,100075.13
2022-08-11T09:51:02.605Z,100062.34
2022-08-11T09:53:41.295Z,100055.47
2022-08-11T09:56:37.093Z,100057.31
2022-08-11T09:59:06.796Z,100066.44
2022-08-11T10:01:43.215Z,100069.53
2022-08-11T10:04:19.790Z,100071.34
2022-08-11T10:07:05.905Z,100053.53
2022-08-11T10:09:49.677Z,100080.38
2022-08-11T10:12:44.122Z,100076.63
2022-08-11T10:15:35.852Z,100064.97
2022-08-11T10:18:53.082Z,100065.91
2022-08-11T10:21:24.870Z,100071.38
2022-08-11T10:24:13.042Z,100064.94
2022-08-11T10:26:54.944Z,100062.25
2022-08-11T10:29:49.482Z,100053.28
2022-08-11T10:32:57.669Z,100061.06
2022-08-11T10:35:34.125Z,100057.00
2022-08-11T10:38:15.742Z,100055.84
2022-08-11T10:41:09.803Z,100057.94
2022-08-11T10:44:03.203Z,100057.50
2022-08-11T10:46:49.981Z,100059.59
2022-08-11T10:49:19.680Z,100050.53
2022-08-11T10:52:08.828Z,100050.88
2022-08-11T10:54:56.767Z,100053.88
2022-08-11T10:57:44.543Z,100053.78
2022-08-11T11:00:32.759Z,100068.63
2022-08-11T11:03:22.465Z,100072.94
2022-08-11T11:06:12.555Z,100075.63
2022-08-11T11:09:00.143Z,100066.75
2022-08-11T11:11:53.305Z,100074.22
2022-08-11T11:14:46.144Z,100061.63
2022-08-11T11:17:46.691Z,100063.16
2022-08-11T11:20:34.771Z,100075.41
2022-08-11T11:23:19.125Z,100075.75
2022-08-11T11:26:27.147Z,100072.25
2022-08-11T11:29:07.353Z,100061.75
2022-08-11T11:32:18.948Z,100066.78
2022-08-11T11:35:15.171Z,100073.31
2022-08-11T11:38:04.377Z,100070.50
2022-08-11T11:40:34.461Z,100065.38
2022-08-11T11:43:04.012Z,100065.59
2022-08-11T11:45:44.757Z,100070.25
2022-08-11T11:48:14.998Z,100068.13
2022-08-11T11:50:43.605Z,100065.09
2022-08-11T11:53:13.540Z,100061.72
2022-08-11T11:55:43.567Z,100051.78
2022-08-11T11:58:30.054Z,100064.53
2022-08-11T12:01:18.661Z,100070.13
2022-08-11T12:03:50.201Z,100077.59
2022-08-11T12:06:21.988Z,100068.50
2022-08-11T12:08:53.001Z,100070.69
2022-08-11T12:11:43.573Z,100073.63
2022-08-11T12:14:13.189Z,100077.66
2022-08-11T12:16:44.387Z,100074.94
2022-08-11T12:19:18.625Z,100085.22
2022-08-11T12:22:06.030Z,100085.19
2022-08-11T12:24:55.109Z,100089.25
2022-08-11T12:27:30.884Z,100088.50
2022-08-11T12:30:10.170Z,100060.38
2022-08-11T12:32:40.603Z,100097.28
2022-08-11T12:35:09.441Z,100093.88
2022-08-11T12:37:44.537Z,100104.94
2022-08-11T12:41:12.099Z,100103.06
2022-08-11T12:44:00.941Z,100112.81
2022-08-11T12:46:38.283Z,100110.69
2022-08-11T12:49:45.351Z,100109.56
2022-08-11T12:52:28.949Z,100111.66
2022-08-11T12:55:31.835Z,100116.66
2022-08-11T12:58:18.307Z,100102.59
2022-08-11T13:01:07.244Z,100126.94
2022-08-11T13:03:59.300Z,100119.25
2022-08-11T13:06:28.586Z,100130.41
2022-08-11T13:09:01.082Z,100139.16
2022-08-11T13:11:55.968Z,100132.38
2022-08-11T13:14:30.454Z,100144.38
2022-08-11T13:17:18.196Z,100136.69
2022-08-11T13:19:49.643Z,100147.00
2022-08-11T13:22:21.004Z,100159.19
2022-08-11T13:24:50.745Z,100150.44
2022-08-11T13:27:24.642Z,100161.97
2022-08-11T13:30:13.702Z,100168.78
2022-08-11T13:32:46.402Z,100164.34
2022-08-11T13:35:16.544Z,100155.34
2022-08-11T13:38:17.508Z,100155.59
2022-08-11T13:40:54.831Z,100168.59
2022-08-11T13:43:25.261Z,100164.06
2022-08-11T13:46:14.931Z,100188.13
2022-08-11T13:48:43.857Z,100168.44
2022-08-11T13:51:34.642Z,100166.41
2022-08-11T13:54:05.979Z,100170.34
2022-08-11T13:56:36.383Z,100170.94
2022-08-11T13:59:05.508Z,100189.84
2022-08-11T14:02:03.269Z,100187.81
2022-08-11T14:04:32.218Z,100197.66
2022-08-11T14:07:04.089Z,100203.00
2022-08-11T14:09:38.824Z,100200.94
2022-08-11T14:12:56.142Z,100206.50
2022-08-11T14:15:27.073Z,100205.06
2022-08-11T14:18:19.206Z,100214.91
2022-08-11T14:21:11.202Z,100214.31
2022-08-11T14:26:28.752Z,100206.00
2022-08-11T14:29:18.262Z,100206.63
2022-08-11T14:31:54.109Z,100203.13
2022-08-11T14:34:25.755Z,100201.25
2022-08-11T14:36:59.358Z,100199.19
2022-08-11T14:39:38.002Z,100198.97
2022-08-11T14:42:26.888Z,100200.84
2022-08-11T14:45:57.938Z,100201.84
2022-08-11T14:48:18.464Z,100193.44
2022-08-11T14:50:48.537Z,100202.03
2022-08-11T14:53:18.835Z,100192.97
2022-08-11T14:56:06.290Z,100192.75
2022-08-11T14:58:38.659Z,100190.47
2022-08-11T15:01:30.183Z,100185.75
2022-08-11T15:04:27.336Z,100199.91
2022-08-11T15:06:49.721Z,100197.84
2022-08-11T15:09:18.720Z,100200.31
2022-08-11T15:12:32.534Z,100204.81
2022-08-11T15:15:17.669Z,100204.38
2022-08-11T15:17:49.712Z,100203.28
2022-08-11T15:20:38.331Z,100207.13
2022-08-11T15:23:26.178Z,100211.22
2022-08-11T15:26:04.426Z,100206.22
2022-08-11T15:28:56.418Z,100201.22
2022-08-11T15:31:49.541Z,100203.84
2022-08-11T15:34:41.101Z,100211.00
2022-08-11T15:37:31.325Z,100205.88
2022-08-11T15:40:32.831Z,100209.94
2022-08-11T15:43:42.004Z,100201.47
2022-08-11T15:46:27.301Z,100191.91
2022-08-11T15:49:03.579Z,100203.94
2022-08-11T15:51:38.735Z,100202.63
2022-08-11T15:54:12.097Z,100207.44
2022-08-11T15:56:46.967Z,100215.03
2022-08-11T15:59:41.883Z,100204.16
2022-08-11T16:02:33.855Z,100215.63
2022-08-11T16:05:07.456Z,100216.00
2022-08-11T16:07:40.970Z,100217.41
2022-08-11T16:10:22.302Z,100211.34
2022-08-11T16:13:05.768Z,100222.75
2022-08-11T16:15:56.526Z,100224.59
2022-08-11T16:18:41.166Z,100219.47
2022-08-11T16:21:26.081Z,100207.75
2022-08-11T16:24:07.255Z,100222.75
2022-08-11T16:27:11.277Z,100212.56
2022-08-11T16:29:32.449Z,100219.06
2022-08-11T16:32:18.657Z,100217.44
2022-08-11T16:35:26.750Z,100234.16
2022-08-11T16:38:17.204Z,100211.72
2022-08-11T16:40:46.390Z,100224.00
2022-08-11T16:43:43.160Z,100213.69
2022-08-11T16:46:32.960Z,100210.19
2022-08-11T16:49:05.748Z,100202.91
2022-08-11T16:51:34.295Z,100215.25
2022-08-11T16:54:05.803Z,100211.13
2022-08-11T16:56:50.130Z,100205.19
2022-08-11T16:59:20.805Z,100202.91
2022-08-11T17:02:05.961Z,100202.25
2022-08-11T17:05:12.639Z,100190.69
2022-08-11T17:08:03.796Z,100205.72
2022-08-11T17:11:01.694Z,100203.44
2022-08-11T17:13:39.570Z,100195.19
2022-08-11T17:16:14.836Z,100193.28
2022-08-11T17:19:04.232Z,100188.72
2022-08-11T17:22:02.692Z,100205.56
2022-08-11T17:24:40.927Z,100196.41
2022-08-11T17:27:10.359Z,100205.84
2022-08-11T17:29:55.522Z,100198.88
2022-08-11T17:32:57.130Z,100195.69
2022-08-11T17:35:34.224Z,100190.81
2022-08-11T17:38:16.503Z,100176.19
2022-08-11T17:41:15.824Z,100189.16
2022-08-11T17:44:10.982Z,100184.13
2022-08-11T17:47:05.146Z,100182.31
2022-08-11T17:49:39.944Z,100185.31
2022-08-11T17:52:33.246Z,100189.00
2022-08-11T17:55:50.937Z,100191.38
2022-08-11T17:58:31.374Z,100172.97
2022-08-11T18:01:03.185Z,100195.31
2022-08-11T18:03:57.749Z,100197.31
2022-08-11T18:06:34.385Z,100203.00
2022-08-11T18:09:29.887Z,100194.56
2022-08-11T18:12:18.648Z,100193.94
2022-08-11T18:15:09.388Z,100191.91
2022-08-11T18:17:58.395Z,100198.84
2022-08-11T18:20:46.121Z,100192.09
2022-08-11T18:23:45.700Z,100191.91
2022-08-11T18:26:40.726Z,100201.88
2022-08-11T18:29:28.160Z,100197.75
2022-08-11T18:32:21.267Z,100194.00
2022-08-11T18:35:13.091Z,100203.81
2022-08-11T18:38:07.345Z,100185.31
2022-08-11T18:40:55.655Z,100202.25
2022-08-11T18:43:46.192Z,100179.84
2022-08-11T18:46:36.967Z,100185.97
2022-08-11T18:50:02.129Z,100182.56
2022-08-11T18:52:42.081Z,100187.59
2022-08-11T18:55:36.589Z,100175.31
2022-08-11T18:58:28.276Z,100178.56
2022-08-11T19:01:19.349Z,100189.53
2022-08-11T19:04:10.881Z,100201.31
2022-08-11T19:07:04.201Z,100203.31
2022-08-11T19:09:51.402Z,100197.38
2022-08-11T19:12:40.357Z,100200.03
2022-08-11T19:15:29.319Z,100196.44
2022-08-11T19:18:18.987Z,100198.81
2022-08-11T19:21:07.965Z,100197.50
2022-08-11T19:24:03.193Z,100185.44
2022-08-11T19:26:53.233Z,100197.97
2022-08-11T19:30:06.927Z,100188.84
2022-08-11T19:32:54.889Z,100189.66
2022-08-11T19:35:46.912Z,100193.78
2022-08-11T19:38:33.752Z,100187.03
2022-08-11T19:41:57.117Z,100170.66
2022-08-11T19:44:28.479Z,100186.84
2022-08-11T19:47:17.223Z,100185.38
2022-08-11T19:50:04.893Z,100181.59
2022-08-11T19:52:54.669Z,100180.78
2022-08-11T19:55:43.891Z,100137.03
2022-08-11T19:58:34.111Z,100176.53
2022-08-11T20:01:20.921Z,100170.09
2022-08-11T20:04:07.304Z,100171.88
2022-08-11T20:06:57.228Z,100169.47
2022-08-11T20:10:05.493Z,100167.75
2022-08-11T20:12:53.125Z,100175.22
2022-08-11T20:15:40.773Z,100170.09
2022-08-11T20:18:31.799Z,100154.94
2022-08-11T20:21:25.371Z,100162.38
2022-08-11T20:24:21.085Z,100155.59
2022-08-11T20:27:17.623Z,100170.97
2022-08-11T20:30:08.515Z,100151.13
2022-08-11T20:32:56.896Z,100141.22
2022-08-11T20:35:43.989Z,100138.22
2022-08-11T20:38:33.816Z,100137.94
2022-08-11T20:41:22.822Z,100114.38
2022-08-11T20:44:11.301Z,100124.59
2022-08-11T20:46:59.282Z,100147.44
2022-08-11T20:49:56.580Z,100139.00
2022-08-11T20:52:48.559Z,100152.59
2022-08-11T20:55:51.259Z,100153.59
2022-08-11T21:01:52.333Z,100143.03
2022-08-11T21:04:54.778Z,100148.16
2022-08-11T21:07:55.296Z,100147.72
2022-08-11T21:10:47.296Z,100158.97
2022-08-11T21:13:46.146Z,100155.16
2022-08-11T21:16:37.853Z,100168.06
2022-08-11T21:19:59.893Z,100157.34
2022-08-11T21:22:59.366Z,100166.41
2022-08-11T21:26:06.128Z,100164.09
2022-08-11T21:28:58.890Z,100148.59
2022-08-11T21:31:48.426Z,100160.81
2022-08-11T21:34:39.460Z,100156.03
2022-08-11T21:37:28.892Z,100152.06
2022-08-11T21:40:19.634Z,100158.53
2022-08-11T21:43:10.396Z,100159.03
2022-08-11T21:45:58.829Z,100168.78
2022-08-11T21:48:47.711Z,100171.94
2022-08-11T21:51:34.210Z,100157.41
2022-08-11T21:54:23.958Z,100169.13
2022-08-11T21:57:12.179Z,100166.81
2022-08-11T22:00:04.699Z,100159.06
2022-08-11T22:02:53.328Z,100173.09
2022-08-11T22:05:43.637Z,100162.84
2022-08-11T22:08:31.381Z,100165.31
2022-08-11T22:11:31.962Z,100167.94
2022-08-11T22:14:23.803Z,100174.72
2022-08-11T22:17:10.471Z,100172.41
2022-08-11T22:19:58.799Z,100132.28
2022-08-11T22:22:53.472Z,100178.19
2022-08-11T22:25:51.649Z,100182.66
2022-08-11T22:28:41.887Z,100168.94
2022-08-11T22:31:30.794Z,100177.03
2022-08-11T22:34:18.836Z,100174.22
2022-08-11T22:37:07.655Z,100189.75
2022-08-11T22:40:01.686Z,100188.44
2022-08-11T22:42:51.882Z,100187.13
2022-08-11T22:45:43.208Z,100186.78
2022-08-11T22:48:31.585Z,100208.44
2022-08-11T22:51:21.222Z,100205.13
2022-08-11T22:54:08.921Z,100196.84
2022-08-11T22:56:57.211Z,100198.69
2022-08-11T22:59:45.217Z,100211.72
2022-08-11T23:02:32.622Z,100209.09
2022-08-11T23:05:19.948Z,100197.66
2022-08-11T23:08:07.508Z,100213.19
2022-08-11T23:10:54.089Z,100219.44
2022-08-11T23:13:43.189Z,100211.19
2022-08-11T23:16:29.786Z,100224.72
2022-08-11T23:20:08.344Z,100228.56
2022-08-11T23:22:36.930Z,100218.66
2022-08-11T23:25:34.420Z,100198.69
2022-08-11T23:28:21.702Z,100200.66
2022-08-11T23:31:15.143Z,100204.31
2022-08-11T23:34:06.026Z,100203.03
2022-08-11T23:36:52.373Z,100194.44
2022-08-11T23:39:38.530Z,100200.69
2022-08-11T23:42:24.981Z,100199.66
2022-08-11T23:45:11.423Z,100198.66
2022-08-11T23:48:01.907Z,100194.66
2022-08-11T23:50:48.623Z,100185.06
2022-08-11T23:53:36.965Z,100185.31
2022-08-11T23:56:24.166Z,100196.00
2022-08-11T23:59:16.698Z,100186.72
